sensor_id;sensor_type;location;lat;lon;timestamp;temperature;humidity
7542;DHT22;3812;50.006;8.230;2022-09-20T00:02:19;10.50;78.70
7542;DHT22;3812;50.006;8.230;2022-09-20T00:04:47;10.40;89.50
7542;DHT22;3812;50.006;8.230;2022-09-20T00:07:14;10.40;93.30
7542;DHT22;3812;50.006;8.230;2022-09-20T00:09:41;10.40;93.20
7542;DHT22;3812;50.006;8.230;2022-09-20T00:12:07;10.70;97.40
7542;DHT22;3812;50.006;8.230;2022-09-20T00:14:35;10.20;97.70
7542;DHT22;3812;50.006;8.230;2022-09-20T00:17:03;10.20;99.90
7542;DHT22;3812;50.006;8.230;2022-09-20T00:19:30;10.10;99.90
7542;DHT22;3812;50.006;8.230;2022-09-20T00:21:57;10.00;99.90
7542;DHT22;3812;50.006;8.230;2022-09-20T00:24:24;9.90;99.90
7542;DHT22;3812;50.006;8.230;2022-09-20T00:26:51;10.00;99.90
7542;DHT22;3812;50.006;8.230;2022-09-20T00:29:18;10.00;99.90
7542;DHT22;3812;50.006;8.230;2022-09-20T00:31:45;10.10;99.90
7542;DHT22;3812;50.006;8.230;2022-09-20T00:34:13;10.20;99.90
7542;DHT22;3812;50.006;8.230;2022-09-20T00:36:57;10.30;99.90
7542;DHT22;3812;50.006;8.230;2022-09-20T00:39:25;10.20;99.90
7542;DHT22;3812;50.006;8.230;2022-09-20T00:41:51;10.20;99.90
7542;DHT22;3812;50.006;8.230;2022-09-20T00:44:44;10.20;99.90
7542;DHT22;3812;50.006;8.230;2022-09-20T00:47:21;10.30;99.90
7542;DHT22;3812;50.006;8.230;2022-09-20T00:49:57;10.30;99.90
7542;DHT22;3812;50.006;8.230;2022-09-20T00:52:25;10.20;99.90
7542;DHT22;3812;50.006;8.230;2022-09-20T00:54:53;10.20;99.90
7542;DHT22;3812;50.006;8.230;2022-09-20T00:57:21;10.30;99.90
7542;DHT22;3812;50.006;8.230;2022-09-20T00:59:50;10.20;99.90
7542;DHT22;3812;50.006;8.230;2022-09-20T01:02:20;10.40;98.40
7542;DHT22;3812;50.006;8.230;2022-09-20T01:04:50;10.40;95.10
7542;DHT22;3812;50.006;8.230;2022-09-20T01:07:20;10.50;92.20
7542;DHT22;3812;50.006;8.230;2022-09-20T01:09:48;10.40;90.90
7542;DHT22;3812;50.006;8.230;2022-09-20T01:12:18;10.40;91.60
7542;DHT22;3812;50.006;8.230;2022-09-20T01:14:47;10.40;91.70
7542;DHT22;3812;50.006;8.230;2022-09-20T01:17:17;10.40;92.20
7542;DHT22;3812;50.006;8.230;2022-09-20T01:19:51;10.30;93.10
7542;DHT22;3812;50.006;8.230;2022-09-20T01:22:24;10.20;96.70
7542;DHT22;3812;50.006;8.230;2022-09-20T01:24:59;10.20;98.90
7542;DHT22;3812;50.006;8.230;2022-09-20T01:27:40;10.20;98.80
7542;DHT22;3812;50.006;8.230;2022-09-20T01:30:08;10.20;99.90
7542;DHT22;3812;50.006;8.230;2022-09-20T01:33:03;10.10;99.90
7542;DHT22;3812;50.006;8.230;2022-09-20T01:35:34;10.10;99.90
7542;DHT22;3812;50.006;8.230;2022-09-20T01:38:14;10.00;99.90
7542;DHT22;3812;50.006;8.230;2022-09-20T01:40:50;9.90;99.90
7542;DHT22;3812;50.006;8.230;2022-09-20T01:43:25;9.90;99.90
7542;DHT22;3812;50.006;8.230;2022-09-20T01:45:58;9.90;99.90
7542;DHT22;3812;50.006;8.230;2022-09-20T01:48:34;9.90;99.90
7542;DHT22;3812;50.006;8.230;2022-09-20T01:51:27;9.80;99.90
7542;DHT22;3812;50.006;8.230;2022-09-20T01:54:24;9.70;99.90
7542;DHT22;3812;50.006;8.230;2022-09-20T01:57:28;9.70;99.90
7542;DHT22;3812;50.006;8.230;2022-09-20T02:00:05;9.70;99.90
7542;DHT22;3812;50.006;8.230;2022-09-20T02:03:14;9.70;99.90
7542;DHT22;3812;50.006;8.230;2022-09-20T02:06:11;9.70;99.90
7542;DHT22;3812;50.006;8.230;2022-09-20T02:09:27;9.60;99.90
7542;DHT22;3812;50.006;8.230;2022-09-20T02:14:54;9.60;99.90
7542;DHT22;3812;50.006;8.230;2022-09-20T02:17:26;9.60;99.90
7542;DHT22;3812;50.006;8.230;2022-09-20T02:20:06;9.50;99.90
7542;DHT22;3812;50.006;8.230;2022-09-20T02:22:52;9.60;99.90
7542;DHT22;3812;50.006;8.230;2022-09-20T02:25:45;9.40;99.90
7542;DHT22;3812;50.006;8.230;2022-09-20T02:28:24;9.30;99.90
7542;DHT22;3812;50.006;8.230;2022-09-20T02:31:04;9.10;99.90
7542;DHT22;3812;50.006;8.230;2022-09-20T02:34:02;9.00;99.90
7542;DHT22;3812;50.006;8.230;2022-09-20T02:36:39;9.00;99.90
7542;DHT22;3812;50.006;8.230;2022-09-20T02:39:10;8.90;99.90
7542;DHT22;3812;50.006;8.230;2022-09-20T02:41:53;8.80;99.90
7542;DHT22;3812;50.006;8.230;2022-09-20T02:44:32;8.70;99.90
7542;DHT22;3812;50.006;8.230;2022-09-20T02:47:08;8.60;99.90
7542;DHT22;3812;50.006;8.230;2022-09-20T02:49:51;8.80;99.90
7542;DHT22;3812;50.006;8.230;2022-09-20T02:52:25;8.80;99.90
7542;DHT22;3812;50.006;8.230;2022-09-20T02:54:58;8.90;99.90
7542;DHT22;3812;50.006;8.230;2022-09-20T02:57:32;8.90;99.90
7542;DHT22;3812;50.006;8.230;2022-09-20T03:00:04;8.90;99.90
7542;DHT22;3812;50.006;8.230;2022-09-20T03:02:39;9.00;99.90
7542;DHT22;3812;50.006;8.230;2022-09-20T03:05:18;9.10;99.90
7542;DHT22;3812;50.006;8.230;2022-09-20T03:08:00;9.10;99.90
7542;DHT22;3812;50.006;8.230;2022-09-20T03:10:34;9.30;99.90
7542;DHT22;3812;50.006;8.230;2022-09-20T03:13:17;9.30;99.90
7542;DHT22;3812;50.006;8.230;2022-09-20T03:15:54;9.20;99.90
7542;DHT22;3812;50.006;8.230;2022-09-20T03:18:32;9.20;99.90
7542;DHT22;3812;50.006;8.230;2022-09-20T03:21:12;9.20;99.90
7542;DHT22;3812;50.006;8.230;2022-09-20T03:23:53;9.10;99.90
7542;DHT22;3812;50.006;8.230;2022-09-20T03:26:31;9.10;99.90
7542;DHT22;3812;50.006;8.230;2022-09-20T03:29:03;9.10;99.90
7542;DHT22;3812;50.006;8.230;2022-09-20T03:31:53;9.00;99.90
7542;DHT22;3812;50.006;8.230;2022-09-20T03:34:37;9.00;99.90
7542;DHT22;3812;50.006;8.230;2022-09-20T03:37:19;9.00;99.90
7542;DHT22;3812;50.006;8.230;2022-09-20T03:40:11;9.00;99.90
7542;DHT22;3812;50.006;8.230;2022-09-20T03:42:46;9.00;99.90
7542;DHT22;3812;50.006;8.230;2022-09-20T03:45:34;9.00;99.90
7542;DHT22;3812;50.006;8.230;2022-09-20T03:48:21;9.00;99.90
7542;DHT22;3812;50.006;8.230;2022-09-20T03:51:03;9.00;99.90
7542;DHT22;3812;50.006;8.230;2022-09-20T03:54:14;8.90;99.90
7542;DHT22;3812;50.006;8.230;2022-09-20T03:57:03;8.90;99.90
7542;DHT22;3812;50.006;8.230;2022-09-20T03:59:46;8.90;99.90
7542;DHT22;3812;50.006;8.230;2022-09-20T04:02:31;8.80;99.90
7542;DHT22;3812;50.006;8.230;2022-09-20T04:05:01;8.70;99.90
7542;DHT22;3812;50.006;8.230;2022-09-20T04:07:35;8.70;99.90
7542;DHT22;3812;50.006;8.230;2022-09-20T04:10:19;8.60;99.90
7542;DHT22;3812;50.006;8.230;2022-09-20T04:12:58;8.60;99.90
7542;DHT22;3812;50.006;8.230;2022-09-20T04:15:34;8.60;99.90
7542;DHT22;3812;50.006;8.230;2022-09-20T04:18:08;8.60;99.90
7542;DHT22;3812;50.006;8.230;2022-09-20T04:20:42;8.70;99.90
7542;DHT22;3812;50.006;8.230;2022-09-20T04:23:20;8.70;99.90
7542;DHT22;3812;50.006;8.230;2022-09-20T04:25:52;8.80;99.90
7542;DHT22;3812;50.006;8.230;2022-09-20T04:28:22;8.80;99.90
7542;DHT22;3812;50.006;8.230;2022-09-20T04:30:54;8.90;99.90
7542;DHT22;3812;50.006;8.230;2022-09-20T04:33:25;9.00;99.90
7542;DHT22;3812;50.006;8.230;2022-09-20T04:36:06;9.10;99.90
7542;DHT22;3812;50.006;8.230;2022-09-20T04:38:59;9.10;99.90
7542;DHT22;3812;50.006;8.230;2022-09-20T04:44:48;9.20;99.90
7542;DHT22;3812;50.006;8.230;2022-09-20T04:50:26;9.40;99.90
7542;DHT22;3812;50.006;8.230;2022-09-20T04:53:20;9.50;99.90
7542;DHT22;3812;50.006;8.230;2022-09-20T04:55:53;9.60;99.90
7542;DHT22;3812;50.006;8.230;2022-09-20T04:58:45;9.80;99.90
7542;DHT22;3812;50.006;8.230;2022-09-20T05:01:52;9.90;99.90
7542;DHT22;3812;50.006;8.230;2022-09-20T05:05:01;10.00;99.90
7542;DHT22;3812;50.006;8.230;2022-09-20T05:11:09;10.00;99.90
7542;DHT22;3812;50.006;8.230;2022-09-20T05:13:51;10.10;99.90
7542;DHT22;3812;50.006;8.230;2022-09-20T05:16:28;10.10;99.90
7542;DHT22;3812;50.006;8.230;2022-09-20T05:19:15;10.20;99.90
7542;DHT22;3812;50.006;8.230;2022-09-20T05:22:25;10.20;99.90
7542;DHT22;3812;50.006;8.230;2022-09-20T05:25:21;10.30;99.90
7542;DHT22;3812;50.006;8.230;2022-09-20T05:27:56;10.30;99.90
7542;DHT22;3812;50.006;8.230;2022-09-20T05:30:32;10.30;99.90
7542;DHT22;3812;50.006;8.230;2022-09-20T05:33:14;10.30;99.90
7542;DHT22;3812;50.006;8.230;2022-09-20T05:35:55;10.30;99.90
7542;DHT22;3812;50.006;8.230;2022-09-20T05:38:31;10.30;99.90
7542;DHT22;3812;50.006;8.230;2022-09-20T05:41:09;10.20;99.90
7542;DHT22;3812;50.006;8.230;2022-09-20T05:43:46;10.20;99.90
7542;DHT22;3812;50.006;8.230;2022-09-20T05:46:21;10.20;99.90
7542;DHT22;3812;50.006;8.230;2022-09-20T05:48:54;10.20;99.90
7542;DHT22;3812;50.006;8.230;2022-09-20T05:51:32;10.30;99.90
7542;DHT22;3812;50.006;8.230;2022-09-20T05:54:23;10.40;99.90
7542;DHT22;3812;50.006;8.230;2022-09-20T05:56:58;10.40;99.90
7542;DHT22;3812;50.006;8.230;2022-09-20T05:59:42;10.40;99.90
7542;DHT22;3812;50.006;8.230;2022-09-20T06:02:23;10.30;99.90
7542;DHT22;3812;50.006;8.230;2022-09-20T06:04:59;10.30;99.90
7542;DHT22;3812;50.006;8.230;2022-09-20T06:07:40;10.30;99.90
7542;DHT22;3812;50.006;8.230;2022-09-20T06:10:19;10.30;99.90
7542;DHT22;3812;50.006;8.230;2022-09-20T06:12:55;10.40;99.90
7542;DHT22;3812;50.006;8.230;2022-09-20T06:15:33;10.40;99.90
7542;DHT22;3812;50.006;8.230;2022-09-20T06:18:19;10.50;99.90
7542;DHT22;3812;50.006;8.230;2022-09-20T06:20:53;10.60;99.90
7542;DHT22;3812;50.006;8.230;2022-09-20T06:23:22;10.70;99.90
7542;DHT22;3812;50.006;8.230;2022-09-20T06:25:53;10.90;99.90
7542;DHT22;3812;50.006;8.230;2022-09-20T06:28:24;11.00;95.50
7542;DHT22;3812;50.006;8.230;2022-09-20T06:30:53;11.20;91.80
7542;DHT22;3812;50.006;8.230;2022-09-20T06:33:24;11.50;85.40
7542;DHT22;3812;50.006;8.230;2022-09-20T06:35:54;11.70;65.20
7542;DHT22;3812;50.006;8.230;2022-09-20T06:38:52;11.80;55.40
7542;DHT22;3812;50.006;8.230;2022-09-20T06:41:38;11.90;45.90
7542;DHT22;3812;50.006;8.230;2022-09-20T06:44:09;12.00;39.60
7542;DHT22;3812;50.006;8.230;2022-09-20T06:46:36;12.00;34.40
7542;DHT22;3812;50.006;8.230;2022-09-20T06:49:08;12.00;31.50
7542;DHT22;3812;50.006;8.230;2022-09-20T06:51:36;12.00;31.50
7542;DHT22;3812;50.006;8.230;2022-09-20T06:54:05;12.00;32.40
7542;DHT22;3812;50.006;8.230;2022-09-20T06:56:36;12.10;28.70
7542;DHT22;3812;50.006;8.230;2022-09-20T06:59:03;12.10;26.40
7542;DHT22;3812;50.006;8.230;2022-09-20T07:01:33;12.10;26.70
7542;DHT22;3812;50.006;8.230;2022-09-20T07:04:00;12.00;23.00
7542;DHT22;3812;50.006;8.230;2022-09-20T07:06:29;12.00;26.50
7542;DHT22;3812;50.006;8.230;2022-09-20T07:08:56;12.10;25.70
7542;DHT22;3812;50.006;8.230;2022-09-20T07:11:23;12.10;25.00
7542;DHT22;3812;50.006;8.230;2022-09-20T07:13:52;12.10;21.50
7542;DHT22;3812;50.006;8.230;2022-09-20T07:16:19;12.20;19.90
7542;DHT22;3812;50.006;8.230;2022-09-20T07:18:47;12.20;20.10
7542;DHT22;3812;50.006;8.230;2022-09-20T07:21:16;12.20;18.50
7542;DHT22;3812;50.006;8.230;2022-09-20T07:23:45;12.20;20.70
7542;DHT22;3812;50.006;8.230;2022-09-20T07:26:16;12.30;17.90
7542;DHT22;3812;50.006;8.230;2022-09-20T07:28:44;12.40;17.50
7542;DHT22;3812;50.006;8.230;2022-09-20T07:31:11;12.40;13.60
7542;DHT22;3812;50.006;8.230;2022-09-20T07:33:38;12.40;12.10
7542;DHT22;3812;50.006;8.230;2022-09-20T07:36:05;12.40;13.90
7542;DHT22;3812;50.006;8.230;2022-09-20T07:38:32;12.40;11.60
7542;DHT22;3812;50.006;8.230;2022-09-20T07:41:01;12.50;8.70
7542;DHT22;3812;50.006;8.230;2022-09-20T07:43:29;12.50;8.10
7542;DHT22;3812;50.006;8.230;2022-09-20T07:45:56;12.60;8.10
7542;DHT22;3812;50.006;8.230;2022-09-20T07:48:26;12.80;6.00
7542;DHT22;3812;50.006;8.230;2022-09-20T07:50:55;12.80;3.60
7542;DHT22;3812;50.006;8.230;2022-09-20T07:53:22;12.90;6.50
7542;DHT22;3812;50.006;8.230;2022-09-20T07:56:02;12.80;1.00
7542;DHT22;3812;50.006;8.230;2022-09-20T07:58:30;12.80;1.00
7542;DHT22;3812;50.006;8.230;2022-09-20T08:01:00;12.80;1.00
7542;DHT22;3812;50.006;8.230;2022-09-20T08:03:28;12.60;1.00
7542;DHT22;3812;50.006;8.230;2022-09-20T08:05:58;13.30;1.00
7542;DHT22;3812;50.006;8.230;2022-09-20T08:08:26;13.50;1.00
7542;DHT22;3812;50.006;8.230;2022-09-20T08:11:02;13.40;1.00
7542;DHT22;3812;50.006;8.230;2022-09-20T08:13:33;13.30;1.00
7542;DHT22;3812;50.006;8.230;2022-09-20T08:16:01;13.40;1.00
7542;DHT22;3812;50.006;8.230;2022-09-20T08:18:28;13.40;1.00
7542;DHT22;3812;50.006;8.230;2022-09-20T08:20:55;13.40;1.00
7542;DHT22;3812;50.006;8.230;2022-09-20T08:23:22;13.50;1.00
7542;DHT22;3812;50.006;8.230;2022-09-20T08:25:49;13.80;1.00
7542;DHT22;3812;50.006;8.230;2022-09-20T08:28:18;14.10;1.00
7542;DHT22;3812;50.006;8.230;2022-09-20T08:30:45;14.40;1.00
7542;DHT22;3812;50.006;8.230;2022-09-20T08:33:12;14.60;1.00
7542;DHT22;3812;50.006;8.230;2022-09-20T08:35:39;14.90;1.00
7542;DHT22;3812;50.006;8.230;2022-09-20T08:38:06;14.90;1.00
7542;DHT22;3812;50.006;8.230;2022-09-20T08:40:33;14.80;1.00
7542;DHT22;3812;50.006;8.230;2022-09-20T08:43:01;14.60;1.00
7542;DHT22;3812;50.006;8.230;2022-09-20T08:45:30;15.00;1.00
7542;DHT22;3812;50.006;8.230;2022-09-20T08:47:58;15.40;1.00
7542;DHT22;3812;50.006;8.230;2022-09-20T08:50:27;15.40;1.00
7542;DHT22;3812;50.006;8.230;2022-09-20T08:52:56;15.50;1.00
7542;DHT22;3812;50.006;8.230;2022-09-20T08:55:25;15.90;1.00
7542;DHT22;3812;50.006;8.230;2022-09-20T08:57:57;16.30;1.00
7542;DHT22;3812;50.006;8.230;2022-09-20T09:00:27;16.60;1.00
7542;DHT22;3812;50.006;8.230;2022-09-20T09:02:57;16.90;1.00
7542;DHT22;3812;50.006;8.230;2022-09-20T09:05:33;17.00;1.00
7542;DHT22;3812;50.006;8.230;2022-09-20T09:08:04;17.00;1.00
7542;DHT22;3812;50.006;8.230;2022-09-20T09:10:35;16.60;1.00
7542;DHT22;3812;50.006;8.230;2022-09-20T09:13:04;16.10;1.00
7542;DHT22;3812;50.006;8.230;2022-09-20T09:15:33;15.40;1.00
7542;DHT22;3812;50.006;8.230;2022-09-20T09:18:02;14.30;1.00
7542;DHT22;3812;50.006;8.230;2022-09-20T09:20:39;13.20;1.00
7542;DHT22;3812;50.006;8.230;2022-09-20T09:23:10;12.70;1.00
7542;DHT22;3812;50.006;8.230;2022-09-20T09:25:46;12.40;14.30
7542;DHT22;3812;50.006;8.230;2022-09-20T09:28:14;12.10;31.50
7542;DHT22;3812;50.006;8.230;2022-09-20T09:30:42;12.00;56.70
7542;DHT22;3812;50.006;8.230;2022-09-20T09:33:18;12.00;96.20
7542;DHT22;3812;50.006;8.230;2022-09-20T09:35:52;12.00;66.30
7542;DHT22;3812;50.006;8.230;2022-09-20T09:38:22;12.00;90.50
7542;DHT22;3812;50.006;8.230;2022-09-20T09:40:51;12.10;96.30
7542;DHT22;3812;50.006;8.230;2022-09-20T09:43:20;12.10;69.40
7542;DHT22;3812;50.006;8.230;2022-09-20T09:45:52;12.10;63.30
7542;DHT22;3812;50.006;8.230;2022-09-20T09:48:24;12.20;73.70
7542;DHT22;3812;50.006;8.230;2022-09-20T09:51:08;12.30;84.20
7542;DHT22;3812;50.006;8.230;2022-09-20T09:53:35;12.60;91.80
7542;DHT22;3812;50.006;8.230;2022-09-20T09:56:23;12.90;75.50
7542;DHT22;3812;50.006;8.230;2022-09-20T09:59:07;13.10;49.40
7542;DHT22;3812;50.006;8.230;2022-09-20T10:01:41;13.30;42.40
7542;DHT22;3812;50.006;8.230;2022-09-20T10:04:16;13.40;16.80
7542;DHT22;3812;50.006;8.230;2022-09-20T10:06:53;13.30;31.20
7542;DHT22;3812;50.006;8.230;2022-09-20T10:09:32;13.20;5.20
7542;DHT22;3812;50.006;8.230;2022-09-20T10:12:19;13.20;1.00
7542;DHT22;3812;50.006;8.230;2022-09-20T10:15:00;13.30;4.80
7542;DHT22;3812;50.006;8.230;2022-09-20T10:17:41;13.50;1.00
7542;DHT22;3812;50.006;8.230;2022-09-20T10:20:30;13.80;1.00
7542;DHT22;3812;50.006;8.230;2022-09-20T10:23:10;14.30;1.00
7542;DHT22;3812;50.006;8.230;2022-09-20T10:25:44;14.70;1.00
7542;DHT22;3812;50.006;8.230;2022-09-20T10:28:27;15.20;1.00
7542;DHT22;3812;50.006;8.230;2022-09-20T10:31:07;15.50;1.00
7542;DHT22;3812;50.006;8.230;2022-09-20T10:33:42;15.90;1.00
7542;DHT22;3812;50.006;8.230;2022-09-20T10:36:17;16.00;1.00
7542;DHT22;3812;50.006;8.230;2022-09-20T10:38:55;15.70;1.00
7542;DHT22;3812;50.006;8.230;2022-09-20T10:41:38;15.40;1.00
7542;DHT22;3812;50.006;8.230;2022-09-20T10:44:44;15.20;1.00
7542;DHT22;3812;50.006;8.230;2022-09-20T10:47:17;15.40;1.00
7542;DHT22;3812;50.006;8.230;2022-09-20T10:49:52;15.50;1.00
7542;DHT22;3812;50.006;8.230;2022-09-20T10:52:42;15.40;1.00
7542;DHT22;3812;50.006;8.230;2022-09-20T10:55:18;15.10;1.00
7542;DHT22;3812;50.006;8.230;2022-09-20T11:00:53;15.10;1.00
7542;DHT22;3812;50.006;8.230;2022-09-20T11:03:43;15.40;1.00
7542;DHT22;3812;50.006;8.230;2022-09-20T11:06:16;15.60;1.00
7542;DHT22;3812;50.006;8.230;2022-09-20T11:08:50;15.70;1.00
7542;DHT22;3812;50.006;8.230;2022-09-20T11:11:24;15.60;1.00
7542;DHT22;3812;50.006;8.230;2022-09-20T11:13:57;16.00;1.00
7542;DHT22;3812;50.006;8.230;2022-09-20T11:16:33;16.20;1.00
7542;DHT22;3812;50.006;8.230;2022-09-20T11:19:07;16.40;1.00
7542;DHT22;3812;50.006;8.230;2022-09-20T11:21:38;16.80;1.00
7542;DHT22;3812;50.006;8.230;2022-09-20T11:24:13;17.30;1.00
7542;DHT22;3812;50.006;8.230;2022-09-20T11:26:46;18.40;1.00
7542;DHT22;3812;50.006;8.230;2022-09-20T11:29:20;19.70;1.00
7542;DHT22;3812;50.006;8.230;2022-09-20T11:31:49;19.40;1.00
7542;DHT22;3812;50.006;8.230;2022-09-20T11:34:22;18.00;1.00
7542;DHT22;3812;50.006;8.230;2022-09-20T11:36:54;16.50;1.00
7542;DHT22;3812;50.006;8.230;2022-09-20T11:39:29;16.40;1.00
7542;DHT22;3812;50.006;8.230;2022-09-20T11:42:00;16.70;1.00
7542;DHT22;3812;50.006;8.230;2022-09-20T11:44:30;17.10;1.00
7542;DHT22;3812;50.006;8.230;2022-09-20T11:47:00;17.40;1.00
7542;DHT22;3812;50.006;8.230;2022-09-20T11:49:31;18.40;1.00
7542;DHT22;3812;50.006;8.230;2022-09-20T11:52:15;18.80;1.00
7542;DHT22;3812;50.006;8.230;2022-09-20T11:57:40;19.30;1.00
7542;DHT22;3812;50.006;8.230;2022-09-20T12:00:08;19.30;1.00
7542;DHT22;3812;50.006;8.230;2022-09-20T12:02:45;18.70;1.00
7542;DHT22;3812;50.006;8.230;2022-09-20T12:05:30;18.60;1.00
7542;DHT22;3812;50.006;8.230;2022-09-20T12:07:59;18.60;1.00
7542;DHT22;3812;50.006;8.230;2022-09-20T12:10:31;20.30;1.00
7542;DHT22;3812;50.006;8.230;2022-09-20T12:13:01;22.00;1.00
7542;DHT22;3812;50.006;8.230;2022-09-20T12:15:30;21.00;1.00
7542;DHT22;3812;50.006;8.230;2022-09-20T12:18:03;19.20;1.00
7542;DHT22;3812;50.006;8.230;2022-09-20T12:21:03;17.20;1.00
7542;DHT22;3812;50.006;8.230;2022-09-20T12:26:40;16.60;1.00
7542;DHT22;3812;50.006;8.230;2022-09-20T12:32:57;16.40;1.00
7542;DHT22;3812;50.006;8.230;2022-09-20T12:35:59;16.00;1.00
7542;DHT22;3812;50.006;8.230;2022-09-20T12:38:56;15.70;1.00
7542;DHT22;3812;50.006;8.230;2022-09-20T12:41:23;15.90;1.00
7542;DHT22;3812;50.006;8.230;2022-09-20T12:44:01;15.80;1.00
7542;DHT22;3812;50.006;8.230;2022-09-20T12:46:32;15.80;1.00
7542;DHT22;3812;50.006;8.230;2022-09-20T12:52:35;16.40;1.00
7542;DHT22;3812;50.006;8.230;2022-09-20T12:55:38;16.30;1.00
7542;DHT22;3812;50.006;8.230;2022-09-20T12:58:20;15.80;1.00
7542;DHT22;3812;50.006;8.230;2022-09-20T13:00:51;15.90;1.00
7542;DHT22;3812;50.006;8.230;2022-09-20T13:03:38;16.10;1.00
7542;DHT22;3812;50.006;8.230;2022-09-20T13:06:23;16.40;1.00
7542;DHT22;3812;50.006;8.230;2022-09-20T13:08:55;16.50;1.00
7542;DHT22;3812;50.006;8.230;2022-09-20T13:11:27;16.70;1.00
7542;DHT22;3812;50.006;8.230;2022-09-20T13:13:56;16.80;1.00
7542;DHT22;3812;50.006;8.230;2022-09-20T13:16:29;16.60;1.00
7542;DHT22;3812;50.006;8.230;2022-09-20T13:19:02;16.30;1.00
7542;DHT22;3812;50.006;8.230;2022-09-20T13:21:31;16.30;1.00
7542;DHT22;3812;50.006;8.230;2022-09-20T13:23:58;16.10;1.00
7542;DHT22;3812;50.006;8.230;2022-09-20T13:26:29;16.10;1.00
7542;DHT22;3812;50.006;8.230;2022-09-20T13:28:58;16.20;1.00
7542;DHT22;3812;50.006;8.230;2022-09-20T13:31:32;16.40;1.00
7542;DHT22;3812;50.006;8.230;2022-09-20T13:34:27;17.00;1.00
7542;DHT22;3812;50.006;8.230;2022-09-20T13:36:56;17.00;1.00
7542;DHT22;3812;50.006;8.230;2022-09-20T13:39:27;16.60;1.00
7542;DHT22;3812;50.006;8.230;2022-09-20T13:41:59;16.10;1.00
7542;DHT22;3812;50.006;8.230;2022-09-20T13:44:29;15.90;1.00
7542;DHT22;3812;50.006;8.230;2022-09-20T13:46:59;15.90;1.00
7542;DHT22;3812;50.006;8.230;2022-09-20T13:49:30;15.70;1.00
7542;DHT22;3812;50.006;8.230;2022-09-20T13:51:57;15.50;1.00
7542;DHT22;3812;50.006;8.230;2022-09-20T13:54:26;15.60;1.00
7542;DHT22;3812;50.006;8.230;2022-09-20T13:56:55;15.90;1.00
7542;DHT22;3812;50.006;8.230;2022-09-20T13:59:25;15.90;1.00
7542;DHT22;3812;50.006;8.230;2022-09-20T14:01:54;16.00;1.00
7542;DHT22;3812;50.006;8.230;2022-09-20T14:04:24;16.00;1.00
7542;DHT22;3812;50.006;8.230;2022-09-20T14:06:52;16.00;1.00
7542;DHT22;3812;50.006;8.230;2022-09-20T14:09:24;15.70;1.00
7542;DHT22;3812;50.006;8.230;2022-09-20T14:11:53;15.60;1.00
7542;DHT22;3812;50.006;8.230;2022-09-20T14:14:23;15.30;1.00
7542;DHT22;3812;50.006;8.230;2022-09-20T14:16:52;15.20;1.00
7542;DHT22;3812;50.006;8.230;2022-09-20T14:19:25;15.10;1.00
7542;DHT22;3812;50.006;8.230;2022-09-20T14:21:54;15.00;1.00
7542;DHT22;3812;50.006;8.230;2022-09-20T14:24:25;15.00;1.00
7542;DHT22;3812;50.006;8.230;2022-09-20T14:27:16;14.90;1.00
7542;DHT22;3812;50.006;8.230;2022-09-20T14:29:44;14.80;1.00
7542;DHT22;3812;50.006;8.230;2022-09-20T14:32:24;14.80;1.00
7542;DHT22;3812;50.006;8.230;2022-09-20T14:34:58;14.90;1.00
7542;DHT22;3812;50.006;8.230;2022-09-20T14:37:28;14.90;1.00
7542;DHT22;3812;50.006;8.230;2022-09-20T14:39:58;14.80;1.00
7542;DHT22;3812;50.006;8.230;2022-09-20T14:42:34;14.90;1.00
7542;DHT22;3812;50.006;8.230;2022-09-20T14:45:03;14.80;1.00
7542;DHT22;3812;50.006;8.230;2022-09-20T14:47:36;14.70;1.00
7542;DHT22;3812;50.006;8.230;2022-09-20T14:50:22;14.70;1.00
7542;DHT22;3812;50.006;8.230;2022-09-20T14:52:59;14.70;1.00
7542;DHT22;3812;50.006;8.230;2022-09-20T14:55:26;14.80;1.00
7542;DHT22;3812;50.006;8.230;2022-09-20T14:57:59;14.90;1.00
7542;DHT22;3812;50.006;8.230;2022-09-20T15:00:26;15.00;1.00
7542;DHT22;3812;50.006;8.230;2022-09-20T15:02:55;15.10;1.00
7542;DHT22;3812;50.006;8.230;2022-09-20T15:05:30;15.20;1.00
7542;DHT22;3812;50.006;8.230;2022-09-20T15:07:58;15.40;1.00
7542;DHT22;3812;50.006;8.230;2022-09-20T15:10:25;15.70;1.00
7542;DHT22;3812;50.006;8.230;2022-09-20T15:12:53;16.00;1.00
7542;DHT22;3812;50.006;8.230;2022-09-20T15:15:21;17.20;1.00
7542;DHT22;3812;50.006;8.230;2022-09-20T15:17:48;19.10;1.00
7542;DHT22;3812;50.006;8.230;2022-09-20T15:20:17;21.10;1.00
7542;DHT22;3812;50.006;8.230;2022-09-20T15:22:46;22.80;1.00
7542;DHT22;3812;50.006;8.230;2022-09-20T15:25:16;23.80;1.00
7542;DHT22;3812;50.006;8.230;2022-09-20T15:27:44;23.50;1.00
7542;DHT22;3812;50.006;8.230;2022-09-20T15:30:13;22.60;1.00
7542;DHT22;3812;50.006;8.230;2022-09-20T15:32:42;23.90;1.00
7542;DHT22;3812;50.006;8.230;2022-09-20T15:35:09;22.90;1.00
7542;DHT22;3812;50.006;8.230;2022-09-20T15:37:36;21.20;1.00
7542;DHT22;3812;50.006;8.230;2022-09-20T15:40:06;20.90;1.00
7542;DHT22;3812;50.006;8.230;2022-09-20T15:42:34;20.10;1.00
7542;DHT22;3812;50.006;8.230;2022-09-20T15:45:07;19.10;1.00
7542;DHT22;3812;50.006;8.230;2022-09-20T15:47:35;18.10;1.00
7542;DHT22;3812;50.006;8.230;2022-09-20T15:50:03;17.80;1.00
7542;DHT22;3812;50.006;8.230;2022-09-20T15:52:34;17.80;1.00
7542;DHT22;3812;50.006;8.230;2022-09-20T15:55:02;17.60;1.00
7542;DHT22;3812;50.006;8.230;2022-09-20T15:57:31;17.10;1.00
7542;DHT22;3812;50.006;8.230;2022-09-20T15:59:58;16.30;1.00
7542;DHT22;3812;50.006;8.230;2022-09-20T16:02:26;15.80;1.00
7542;DHT22;3812;50.006;8.230;2022-09-20T16:04:53;15.30;1.00
7542;DHT22;3812;50.006;8.230;2022-09-20T16:07:21;14.90;1.00
7542;DHT22;3812;50.006;8.230;2022-09-20T16:09:51;14.80;1.00
7542;DHT22;3812;50.006;8.230;2022-09-20T16:12:19;14.70;1.00
7542;DHT22;3812;50.006;8.230;2022-09-20T16:14:47;14.50;1.00
7542;DHT22;3812;50.006;8.230;2022-09-20T16:17:14;14.50;1.00
7542;DHT22;3812;50.006;8.230;2022-09-20T16:19:42;14.40;1.00
7542;DHT22;3812;50.006;8.230;2022-09-20T16:22:09;14.20;1.00
7542;DHT22;3812;50.006;8.230;2022-09-20T16:24:37;14.30;1.00
7542;DHT22;3812;50.006;8.230;2022-09-20T16:27:05;14.20;1.00
7542;DHT22;3812;50.006;8.230;2022-09-20T16:29:33;14.20;1.00
7542;DHT22;3812;50.006;8.230;2022-09-20T16:32:02;14.20;1.00
7542;DHT22;3812;50.006;8.230;2022-09-20T16:34:31;14.20;1.00
7542;DHT22;3812;50.006;8.230;2022-09-20T16:37:02;14.10;1.00
7542;DHT22;3812;50.006;8.230;2022-09-20T16:39:30;14.00;1.00
7542;DHT22;3812;50.006;8.230;2022-09-20T16:41:58;14.00;1.00
7542;DHT22;3812;50.006;8.230;2022-09-20T16:44:29;14.00;1.00
7542;DHT22;3812;50.006;8.230;2022-09-20T16:46:56;14.00;1.00
7542;DHT22;3812;50.006;8.230;2022-09-20T16:49:25;14.00;1.00
7542;DHT22;3812;50.006;8.230;2022-09-20T16:51:52;14.00;1.00
7542;DHT22;3812;50.006;8.230;2022-09-20T16:54:19;14.00;1.00
7542;DHT22;3812;50.006;8.230;2022-09-20T16:56:48;13.80;1.00
7542;DHT22;3812;50.006;8.230;2022-09-20T16:59:16;13.90;1.00
7542;DHT22;3812;50.006;8.230;2022-09-20T17:01:44;13.90;1.00
7542;DHT22;3812;50.006;8.230;2022-09-20T17:04:11;14.00;1.00
7542;DHT22;3812;50.006;8.230;2022-09-20T17:06:41;13.90;1.00
7542;DHT22;3812;50.006;8.230;2022-09-20T17:09:09;13.90;1.00
7542;DHT22;3812;50.006;8.230;2022-09-20T17:11:37;13.80;1.00
7542;DHT22;3812;50.006;8.230;2022-09-20T17:14:05;13.80;1.00
7542;DHT22;3812;50.006;8.230;2022-09-20T17:16:33;13.80;1.00
7542;DHT22;3812;50.006;8.230;2022-09-20T17:19:01;13.80;1.00
7542;DHT22;3812;50.006;8.230;2022-09-20T17:21:29;13.80;1.00
7542;DHT22;3812;50.006;8.230;2022-09-20T17:23:58;13.70;1.00
7542;DHT22;3812;50.006;8.230;2022-09-20T17:26:27;13.70;1.00
7542;DHT22;3812;50.006;8.230;2022-09-20T17:28:56;13.70;1.00